createdAt,value
2022-10-12T00:00:59.334Z,14.57
2022-10-12T00:03:25.925Z,13.23
2022-10-12T00:06:26.895Z,14.37
2022-10-12T00:08:54.745Z,15.20
2022-10-12T00:11:27.389Z,14.00
2022-10-12T00:13:55.373Z,15.80
2022-10-12T00:16:24.273Z,14.77
2022-10-12T00:18:55.518Z,14.83
2022-10-12T00:21:23.511Z,15.73
2022-10-12T00:23:50.162Z,14.77
2022-10-12T00:26:22.060Z,14.07
2022-10-12T00:28:49.574Z,15.43
2022-10-12T00:31:19.100Z,14.13
2022-10-12T00:33:47.243Z,14.67
2022-10-12T00:36:16.415Z,14.87
2022-10-12T00:38:43.235Z,15.27
2022-10-12T00:41:10.691Z,16.50
2022-10-12T00:43:41.742Z,15.13
2022-10-12T00:46:31.329Z,17.83
2022-10-12T00:49:08.544Z,15.73
2022-10-12T00:51:35.233Z,16.63
2022-10-12T00:54:07.979Z,16.03
2022-10-12T00:56:38.260Z,14.73
2022-10-12T00:59:09.911Z,14.90
2022-10-12T01:01:38.775Z,15.57
2022-10-12T01:04:06.531Z,15.33
2022-10-12T01:06:34.580Z,14.63
2022-10-12T01:09:02.361Z,15.23
2022-10-12T01:11:28.953Z,15.43
2022-10-12T01:13:56.112Z,16.53
2022-10-12T01:16:28.622Z,15.13
2022-10-12T01:19:04.498Z,15.17
2022-10-12T01:21:37.760Z,16.27
2022-10-12T01:24:41.634Z,16.20
2022-10-12T01:27:14.124Z,16.33
2022-10-12T01:30:08.024Z,16.37
2022-10-12T01:32:47.188Z,16.20
2022-10-12T01:35:24.311Z,16.53
2022-10-12T01:38:07.465Z,16.77
2022-10-12T01:40:53.145Z,16.10
2022-10-12T01:43:24.105Z,17.30
2022-10-12T01:45:50.876Z,18.50
2022-10-12T20:38:00.938Z,3.37
2022-10-12T20:40:29.006Z,3.53
2022-10-12T20:42:56.878Z,3.70
2022-10-12T20:45:23.485Z,4.40
2022-10-12T20:47:50.125Z,3.83
2022-10-12T20:50:16.874Z,3.43
2022-10-12T20:52:44.038Z,3.40
2022-10-12T20:55:11.041Z,2.93
2022-10-12T20:57:37.659Z,4.37
2022-10-12T21:00:05.582Z,4.10
2022-10-12T21:02:33.503Z,5.00
2022-10-12T21:05:00.147Z,4.97
2022-10-12T21:07:26.842Z,4.93
2022-10-12T21:09:53.452Z,4.63
2022-10-12T21:12:20.716Z,4.90
2022-10-12T21:14:47.737Z,4.40
2022-10-12T21:17:14.423Z,5.13
2022-10-12T21:19:41.623Z,5.30
2022-10-12T21:22:08.283Z,4.57
2022-10-12T21:24:35.038Z,4.63
2022-10-12T21:27:02.454Z,5.20
2022-10-12T21:29:29.044Z,5.23
2022-10-12T21:31:55.806Z,5.97
2022-10-12T21:34:22.531Z,6.23
2022-10-12T21:36:49.360Z,6.77
2022-10-12T21:39:17.331Z,6.37
2022-10-12T21:41:44.055Z,5.93
2022-10-12T21:44:11.884Z,6.23
2022-10-12T21:46:38.554Z,7.40
2022-10-12T21:49:09.189Z,6.43
2022-10-12T21:51:36.800Z,6.97
2022-10-12T21:54:05.447Z,8.23
2022-10-12T21:56:35.213Z,6.57
2022-10-12T21:59:03.021Z,7.67
2022-10-12T22:01:40.299Z,6.87
2022-10-12T22:04:11.368Z,6.87
2022-10-12T22:06:38.239Z,7.47
2022-10-12T22:09:08.256Z,7.20
2022-10-12T22:11:36.502Z,7.27
2022-10-12T22:14:06.045Z,7.40
2022-10-12T22:16:36.666Z,6.60
2022-10-12T22:19:06.287Z,7.40
2022-10-12T22:21:33.796Z,6.50
2022-10-12T22:24:00.658Z,7.13
2022-10-12T22:26:27.946Z,6.63
2022-10-12T22:28:55.011Z,6.87
2022-10-12T22:31:22.871Z,6.30
2022-10-12T22:33:49.598Z,6.83
2022-10-12T22:36:16.990Z,6.30
2022-10-12T22:38:44.449Z,6.33
2022-10-12T22:41:13.681Z,6.57
2022-10-12T22:43:40.285Z,6.23
2022-10-12T22:46:07.371Z,6.37
2022-10-12T22:48:34.934Z,7.30
2022-10-12T22:51:02.562Z,6.63
2022-10-12T22:53:30.026Z,6.00
2022-10-12T22:56:05.784Z,6.43
2022-10-12T22:58:33.006Z,5.00
2022-10-12T23:01:08.786Z,5.67
2022-10-12T23:03:36.774Z,5.47
2022-10-12T23:06:04.595Z,5.97
2022-10-12T23:08:31.529Z,5.67
2022-10-12T23:11:06.265Z,5.50
2022-10-12T23:13:34.117Z,5.47
2022-10-12T23:16:05.746Z,4.83
2022-10-12T23:18:34.093Z,4.90
2022-10-12T23:21:04.967Z,5.20
2022-10-12T23:23:32.758Z,4.50
2022-10-12T23:26:02.067Z,4.70
2022-10-12T23:28:28.898Z,4.20
2022-10-12T23:30:55.798Z,4.43
2022-10-12T23:33:22.369Z,4.67
2022-10-12T23:35:59.786Z,3.83
2022-10-12T23:38:29.485Z,4.90
2022-10-12T23:40:56.935Z,4.30
2022-10-12T23:43:23.671Z,4.57
2022-10-12T23:45:50.545Z,4.30
2022-10-12T23:48:17.145Z,4.73
2022-10-12T23:50:43.873Z,4.67
2022-10-12T23:53:11.952Z,4.87
2022-10-12T23:55:38.622Z,5.30
2022-10-12T23:58:05.787Z,4.20
